Time;durP1;ratioP1;P1;durP2;ratioP2;P2;SDS_P1;SDS_P2;PMS_P1;PMS_P2;Temp;Humidity;BMP_temperature;BMP_pressure;BME280_temperature;BME280_humidity;BME280_pressure;Samples;Min_cycle;Max_cycle;Signal;HPM_P1;HPM_P2
2023/06/12 00:00:54;;;;;;;;;;;;;;;26.15;35.18;101321.78;2297077;77;50551;-75
2023/06/12 00:03:57;;;;;;;;;;;;;;;26.15;35.21;101319.92;2297436;77;51569;-75
2023/06/12 00:06:58;;;;;;;;;;;;;;;26.14;35.25;101320.13;2277947;77;51825;-75
2023/06/12 00:10:00;;;;;;;;;;;;;;;26.15;35.26;101322.64;2297473;77;51474;-75
2023/06/12 00:13:01;;;;;;;;;;;;;;;26.15;35.24;101329.42;2297471;77;52234;-75
2023/06/12 00:16:03;;;;;;;;;;;;;;;26.15;35.20;101331.28;2297366;77;51494;-75
2023/06/12 00:19:05;;;;;;;;;;;;;;;26.14;35.18;101331.81;2310669;76;51441;-75
2023/06/12 00:22:06;;;;;;;;;;;;;;;26.14;35.33;101330.45;2293133;76;50836;-74
2023/06/12 00:25:08;;;;;;;;;;;;;;;26.14;35.25;101330.45;2322051;76;51571;-74
2023/06/12 00:28:10;;;;;;;;;;;;;;;26.14;35.19;101326.38;2321918;76;51478;-74
2023/06/12 00:31:11;;;;;;;;;;;;;;;26.13;35.17;101327.44;2292608;76;52410;-75
2023/06/12 00:34:13;;;;;;;;;;;;;;;26.14;35.14;101326.38;2322103;76;51489;-74
2023/06/12 00:37:17;;;;;;;;;;;;;;;26.15;35.12;101333.98;2294731;76;50243;-75
2023/06/12 00:40:18;;;;;;;;;;;;;;;26.14;35.08;101327.73;2257794;78;22338;-75
2023/06/12 00:43:19;;;;;;;;;;;;;;;26.13;35.07;101328.80;2285323;78;50059;-75
2023/06/12 00:46:21;;;;;;;;;;;;;;;26.13;35.01;101327.97;2257091;78;50633;-75
2023/06/12 00:49:22;;;;;;;;;;;;;;;26.12;35.09;101331.19;2321295;76;51545;-74
2023/06/12 00:52:25;;;;;;;;;;;;;;;26.13;35.07;101330.16;2321996;76;50720;-75
2023/06/12 00:55:29;;;;;;;;;;;;;;;26.14;35.04;101331.81;2293043;76;52441;-75
2023/06/12 00:58:31;;;;;;;;;;;;;;;26.14;35.04;101336.41;2293146;76;50182;-75
2023/06/12 01:01:32;;;;;;;;;;;;;;;26.14;35.00;101329.63;2321989;76;50282;-75
2023/06/12 01:04:37;;;;;;;;;;;;;;;26.13;34.97;101336.94;2293433;76;51599;-75
2023/06/12 01:07:58;;;;;;;;;;;;;;;26.14;34.95;101339.12;2292987;76;49719;-75
2023/06/12 01:11:09;;;;;;;;;;;;;;;26.13;34.92;101338.30;2264373;78;50633;-74
2023/06/12 01:14:13;;;;;;;;;;;;;;;26.13;34.88;101330.16;2264385;78;50845;-75
2023/06/12 01:17:16;;;;;;;;;;;;;;;26.14;34.85;101336.41;2264042;78;50812;-75
2023/06/12 01:20:18;;;;;;;;;;;;;;;26.13;34.86;101334.75;2264702;78;22717;-75
2023/06/12 01:23:23;;;;;;;;;;;;;;;26.12;34.82;101335.25;2264355;78;50305;-75
2023/06/12 01:26:27;;;;;;;;;;;;;;;26.11;34.84;101332.25;2264218;78;50780;-75
2023/06/12 01:29:36;;;;;;;;;;;;;;;26.11;34.86;101324.64;2264309;78;50648;-76
2023/06/12 01:32:40;;;;;;;;;;;;;;;26.13;34.76;101332.05;2239553;78;52534;-75
2023/06/12 01:35:43;;;;;;;;;;;;;;;26.11;34.68;101326.82;2264390;78;50629;-76
2023/06/12 01:38:45;;;;;;;;;;;;;;;26.12;34.60;101333.08;2264635;78;22757;-75
2023/06/12 01:41:47;;;;;;;;;;;;;;;26.10;34.67;101325.17;2290616;76;50753;-75
2023/06/12 01:44:50;;;;;;;;;;;;;;;26.11;34.73;101341.73;2322099;76;50433;-75
2023/06/12 01:47:52;;;;;;;;;;;;;;;26.09;34.75;101324.84;2267851;76;51601;-73
2023/06/12 01:50:53;;;;;;;;;;;;;;;26.09;34.75;101327.55;2305691;76;50728;-73
2023/06/12 01:53:55;;;;;;;;;;;;;;;26.09;34.75;101322.66;2297267;76;50708;-73
2023/06/12 01:56:57;;;;;;;;;;;;;;;26.08;34.77;101321.02;2277989;77;50497;-74
2023/06/12 02:00:04;;;;;;;;;;;;;;;26.07;34.62;101332.36;2253570;77;51263;-76
2023/06/12 02:03:02;;;;;;;;;;;;;;;26.04;34.51;101327.38;2295617;77;22493;-76
2023/06/12 02:06:04;;;;;;;;;;;;;;;26.05;34.50;101331.77;2297276;77;50770;-76
2023/06/12 02:09:05;;;;;;;;;;;;;;;26.04;34.29;101338.22;2278146;77;50098;-76
2023/06/12 02:12:07;;;;;;;;;;;;;;;26.04;34.08;101331.44;2253490;77;51185;-77
2023/06/12 02:15:10;;;;;;;;;;;;;;;26.04;33.85;101328.73;2278371;76;50725;-77
2023/06/12 02:18:11;;;;;;;;;;;;;;;26.02;33.74;101320.83;2288795;76;50683;-77
2023/06/12 02:21:13;;;;;;;;;;;;;;;26.01;33.53;101328.64;2322059;76;51589;-78
2023/06/12 02:24:16;;;;;;;;;;;;;;;26.01;33.57;101323.75;2292884;76;52572;-76
2023/06/12 02:27:17;;;;;;;;;;;;;;;26.01;33.49;101321.03;2293233;76;51649;-76
2023/06/12 02:30:19;;;;;;;;;;;;;;;26.01;33.31;101331.87;2293324;76;51460;-76
2023/06/12 02:33:22;;;;;;;;;;;;;;;26.00;33.27;101342.44;2322197;76;50647;-77
2023/06/12 02:36:23;;;;;;;;;;;;;;;25.98;33.21;101333.67;2292830;76;51848;-77
2023/06/12 02:39:25;;;;;;;;;;;;;;;25.97;33.15;101342.84;2322164;76;51423;-76
2023/06/12 02:42:26;;;;;;;;;;;;;;;25.98;33.03;101339.92;2293214;76;51525;-76
2023/06/12 02:45:28;;;;;;;;;;;;;;;25.97;32.83;101340.12;2322286;76;50218;-76
2023/06/12 02:48:30;;;;;;;;;;;;;;;25.96;32.76;101339.83;2289281;76;51177;-76
2023/06/12 02:51:31;;;;;;;;;;;;;;;25.96;32.64;101350.68;2291646;76;50635;-77
2023/06/12 02:54:33;;;;;;;;;;;;;;;25.94;32.58;101350.05;2322196;76;50364;-75
2023/06/12 02:57:34;;;;;;;;;;;;;;;25.94;32.41;101345.98;2321898;76;51443;-76
2023/06/12 03:00:36;;;;;;;;;;;;;;;25.93;32.52;101346.52;2293211;76;51065;-77
2023/06/12 03:03:39;;;;;;;;;;;;;;;25.93;32.55;101354.66;2293418;76;50248;-77
2023/06/12 03:06:41;;;;;;;;;;;;;;;25.92;32.43;101351.64;2293567;76;51727;-77
2023/06/12 03:09:43;;;;;;;;;;;;;;;25.91;32.46;101355.38;2322243;76;51378;-78
2023/06/12 03:12:45;;;;;;;;;;;;;;;25.91;32.42;101352.67;2293268;76;52554;-77
2023/06/12 03:15:47;;;;;;;;;;;;;;;25.89;32.24;101357.47;2293511;76;51590;-77
2023/06/12 03:18:49;;;;;;;;;;;;;;;25.88;32.27;101359.06;2287296;76;51622;-77
2023/06/12 03:21:51;;;;;;;;;;;;;;;25.90;32.32;101362.40;2320286;76;50723;-78
2023/06/12 03:24:53;;;;;;;;;;;;;;;25.89;32.24;101360.72;2292839;76;52507;-77
2023/06/12 03:27:55;;;;;;;;;;;;;;;25.88;32.13;101350.93;2293291;76;51547;-77
2023/06/12 03:30:57;;;;;;;;;;;;;;;25.87;32.08;101358.73;2322162;76;51519;-77
2023/06/12 03:33:58;;;;;;;;;;;;;;;25.85;32.07;101367.92;2322310;76;51566;-77
2023/06/12 03:37:00;;;;;;;;;;;;;;;25.85;32.04;101351.66;2292043;76;52344;-77
2023/06/12 03:40:01;;;;;;;;;;;;;;;25.86;31.91;101361.98;2282186;77;51461;-75
2023/06/12 03:43:03;;;;;;;;;;;;;;;25.84;31.94;101360.85;2297682;76;51457;-78
2023/06/12 03:46:05;;;;;;;;;;;;;;;25.84;31.86;101375.77;2297705;76;51477;-77
2023/06/12 03:49:07;;;;;;;;;;;;;;;25.84;31.81;101362.21;2253483;76;51022;-77
2023/06/12 03:52:08;;;;;;;;;;;;;;;25.83;31.70;101363.20;2278427;77;51553;-76
2023/06/12 03:55:10;;;;;;;;;;;;;;;25.84;31.78;101366.74;2278635;77;51380;-75
2023/06/12 03:58:16;;;;;;;;;;;;;;;25.83;31.70;101365.91;2278197;77;50408;-76
2023/06/12 04:01:14;;;;;;;;;;;;;;;25.81;31.73;101365.29;2297541;77;22351;-76
2023/06/12 04:04:16;;;;;;;;;;;;;;;25.81;31.72;101361.22;2278460;76;52244;-76
2023/06/12 04:07:18;;;;;;;;;;;;;;;25.80;31.70;101369.06;2298452;76;51462;-76
2023/06/12 04:10:20;;;;;;;;;;;;;;;25.81;31.71;101365.82;2322329;76;50747;-75
2023/06/12 04:13:22;;;;;;;;;;;;;;;25.80;31.71;101366.88;2267775;76;52539;-76
2023/06/12 04:16:24;;;;;;;;;;;;;;;25.79;31.67;101370.12;2292787;76;50426;-77
2023/06/12 04:19:26;;;;;;;;;;;;;;;25.80;31.64;101369.59;2293681;76;50768;-78
2023/06/12 04:22:29;;;;;;;;;;;;;;;25.79;31.59;101372.83;2322506;76;50522;-78
2023/06/12 04:25:32;;;;;;;;;;;;;;;25.79;31.52;101370.12;2293329;76;51600;-78
2023/06/12 04:28:35;;;;;;;;;;;;;;;25.79;31.40;101371.97;2322300;76;50820;-77
2023/06/12 04:31:37;;;;;;;;;;;;;;;25.79;31.51;101371.47;2322705;76;51578;-76
2023/06/12 04:34:43;;;;;;;;;;;;;;;25.79;31.47;101378.25;2322458;76;51531;-76
2023/06/12 04:37:48;;;;;;;;;;;;;;;25.78;31.04;101377.92;2288113;76;53601;-75
2023/06/12 04:40:51;;;;;;;;;;;;;;;25.78;30.90;101381.16;2300942;76;22360;-77
2023/06/12 04:43:58;;;;;;;;;;;;;;;25.79;32.46;101389.09;2297678;76;22352;-77
2023/06/12 04:46:54;;;;;;;;;;;;;;;25.81;32.56;101391.05;2297752;77;22391;-78
2023/06/12 04:49:57;;;;;;;;;;;;;;;25.87;32.43;101389.91;2254855;77;50148;-77
2023/06/12 04:52:59;;;;;;;;;;;;;;;25.92;32.14;101386.03;2298181;76;50053;-75
2023/06/12 04:56:04;;;;;;;;;;;;;;;25.97;31.81;101387.08;2297460;76;50251;-75
2023/06/12 04:59:04;;;;;;;;;;;;;;;26.03;31.38;101388.09;2297355;76;22463;-76
2023/06/12 05:02:07;;;;;;;;;;;;;;;26.08;31.01;101386.11;2253444;77;49610;-76
2023/06/12 05:05:09;;;;;;;;;;;;;;;26.10;30.76;101387.55;2278376;77;50286;-75
2023/06/12 05:08:11;;;;;;;;;;;;;;;26.14;30.46;101390.13;2311625;75;51573;-75
2023/06/12 05:11:13;;;;;;;;;;;;;;;26.20;30.18;101395.20;2321462;76;51603;-75
2023/06/12 05:14:15;;;;;;;;;;;;;;;26.26;29.96;101388.94;2268084;76;51207;-75
2023/06/12 05:17:17;;;;;;;;;;;;;;;26.29;29.88;101393.39;2293129;76;50811;-75
2023/06/12 05:20:19;;;;;;;;;;;;;;;26.37;29.81;101390.13;2293314;76;50296;-77
2023/06/12 05:23:20;;;;;;;;;;;;;;;26.44;29.85;101386.86;2293027;76;51713;-75
2023/06/12 05:26:23;;;;;;;;;;;;;;;26.45;29.91;101379.00;2292774;76;51117;-76
2023/06/12 05:29:25;;;;;;;;;;;;;;;26.49;29.77;101373.46;2322009;76;51586;-75
2023/06/12 05:32:27;;;;;;;;;;;;;;;26.55;29.77;101378.56;2293187;76;50816;-74
2023/06/12 05:35:30;;;;;;;;;;;;;;;26.58;29.59;101384.91;2322000;76;51534;-75
2023/06/12 05:38:31;;;;;;;;;;;;;;;26.63;29.50;101383.73;2320369;75;22273;-75
2023/06/12 05:41:33;;;;;;;;;;;;;;;26.67;29.44;101380.36;2293181;76;50274;-76
2023/06/12 05:44:34;;;;;;;;;;;;;;;26.75;29.29;101381.16;2321978;76;50280;-75
2023/06/12 05:47:36;;;;;;;;;;;;;;;26.76;29.37;101381.45;2321775;76;50671;-75
2023/06/12 05:50:38;;;;;;;;;;;;;;;26.75;29.11;101394.73;2267578;76;52055;-75
2023/06/12 05:53:39;;;;;;;;;;;;;;;26.69;28.73;101383.69;2322218;76;50638;-74
2023/06/12 05:56:41;;;;;;;;;;;;;;;26.70;28.24;101391.31;2292925;76;50884;-76
2023/06/12 05:59:47;;;;;;;;;;;;;;;26.66;27.86;101390.89;2298238;76;51522;-77
2023/06/12 06:02:46;;;;;;;;;;;;;;;26.64;28.17;101391.66;2333864;76;21838;-77
2023/06/12 06:05:47;;;;;;;;;;;;;;;26.65;27.53;101390.59;2306091;76;51478;-76
2023/06/12 06:08:49;;;;;;;;;;;;;;;26.65;27.58;101400.10;2315995;75;51539;-77
2023/06/12 06:11:51;;;;;;;;;;;;;;;26.64;27.44;101397.59;2322172;76;50634;-76
2023/06/12 06:14:52;;;;;;;;;;;;;;;26.61;27.38;101400.22;2267967;76;51145;-76
2023/06/12 06:17:54;;;;;;;;;;;;;;;26.59;27.37;101396.92;2293190;76;50817;-76
2023/06/12 06:20:56;;;;;;;;;;;;;;;26.49;27.27;101400.60;2293331;76;52109;-75
2023/06/12 06:23:57;;;;;;;;;;;;;;;26.40;27.33;101399.18;2322144;76;51563;-76
2023/06/12 06:26:59;;;;;;;;;;;;;;;26.39;27.77;101402.95;2267873;76;52353;-76
2023/06/12 06:30:01;;;;;;;;;;;;;;;26.39;27.16;101410.56;2322233;76;51574;-75
2023/06/12 06:33:02;;;;;;;;;;;;;;;26.25;27.48;101408.42;2293612;76;50229;-76
2023/06/12 06:36:04;;;;;;;;;;;;;;;26.13;27.22;101416.13;2322743;75;50245;-76
2023/06/12 06:39:06;;;;;;;;;;;;;;;26.14;27.62;101411.00;2288473;76;51551;-75
2023/06/12 06:42:07;;;;;;;;;;;;;;;26.16;27.52;101407.02;2303080;74;52571;-75
2023/06/12 06:45:09;;;;;;;;;;;;;;;26.19;27.74;101407.94;2337180;75;50448;-76
2023/06/12 06:48:12;;;;;;;;;;;;;;;26.23;27.63;101407.83;2337935;75;50631;-75
2023/06/12 06:51:14;;;;;;;;;;;;;;;26.28;27.75;101408.52;2333497;75;51356;-75
2023/06/12 06:54:16;;;;;;;;;;;;;;;26.23;27.67;101411.91;2334876;75;50262;-75
2023/06/12 06:57:18;;;;;;;;;;;;;;;26.20;27.46;101415.55;2361490;74;50578;-75
2023/06/12 07:00:21;;;;;;;;;;;;;;;26.14;27.75;101417.78;2333722;75;51574;-75
2023/06/12 07:03:23;;;;;;;;;;;;;;;26.11;27.92;101424.47;2310942;75;50277;-75
2023/06/12 07:06:26;;;;;;;;;;;;;;;26.14;27.94;101425.91;2345453;74;50665;-76
2023/06/12 07:09:27;;;;;;;;;;;;;;;26.15;28.02;101419.44;2323378;75;50699;-76
2023/06/12 07:12:29;;;;;;;;;;;;;;;26.20;28.05;101419.13;2294867;76;50762;-74
2023/06/12 07:15:31;;;;;;;;;;;;;;;26.24;27.82;101422.22;2313906;75;52352;-76
2023/06/12 07:18:33;;;;;;;;;;;;;;;26.08;28.01;101419.48;2335584;75;50223;-75
2023/06/12 07:21:35;;;;;;;;;;;;;;;26.13;28.12;101422.91;2354173;74;50349;-76
2023/06/12 07:24:37;;;;;;;;;;;;;;;26.17;27.83;101425.48;2350303;75;51558;-77
2023/06/12 07:27:38;;;;;;;;;;;;;;;26.12;27.96;101429.36;2302084;75;52861;-77
2023/06/12 07:30:40;;;;;;;;;;;;;;;26.04;27.86;101423.66;2359726;75;51627;-77
2023/06/12 07:33:42;;;;;;;;;;;;;;;26.10;27.89;101428.73;2364710;74;51453;-75
2023/06/12 07:36:43;;;;;;;;;;;;;;;26.04;27.90;101421.77;2347772;74;50205;-75
2023/06/12 07:39:45;;;;;;;;;;;;;;;26.15;28.00;101428.42;2289647;76;49603;-77
2023/06/12 07:42:46;;;;;;;;;;;;;;;26.13;27.83;101427.80;2293653;75;51430;-77
2023/06/12 07:45:48;;;;;;;;;;;;;;;26.09;27.85;101423.84;2322365;76;51535;-76
2023/06/12 07:48:50;;;;;;;;;;;;;;;26.04;26.75;101423.13;2322134;75;51450;-75
2023/06/12 07:51:51;;;;;;;;;;;;;;;25.96;27.08;101421.19;2267984;76;52487;-76
2023/06/12 07:54:53;;;;;;;;;;;;;;;25.96;27.11;101426.08;2293260;75;51368;-76
2023/06/12 07:57:56;;;;;;;;;;;;;;;26.00;27.06;101415.66;2322065;75;50249;-77
2023/06/12 08:00:57;;;;;;;;;;;;;;;26.04;27.16;101415.52;2322140;76;51505;-75
2023/06/12 08:03:59;;;;;;;;;;;;;;;26.08;27.18;101409.16;2293233;76;50652;-76
2023/06/12 08:07:00;;;;;;;;;;;;;;;26.08;26.62;101407.80;2301272;75;50662;-76
2023/06/12 08:10:03;;;;;;;;;;;;;;;26.13;25.44;101407.99;2313699;76;51431;-77
2023/06/12 08:13:05;;;;;;;;;;;;;;;26.02;25.54;101413.03;2322070;76;51557;-76
2023/06/12 08:16:08;;;;;;;;;;;;;;;26.09;25.57;101408.92;2293103;76;52376;-76
2023/06/12 08:19:10;;;;;;;;;;;;;;;26.10;25.40;101407.04;2293379;76;50688;-77
2023/06/12 08:22:12;;;;;;;;;;;;;;;26.05;25.24;101392.80;2293169;76;50385;-76
2023/06/12 08:25:14;;;;;;;;;;;;;;;25.95;24.85;101404.62;2322193;76;51629;-76
2023/06/12 08:28:16;;;;;;;;;;;;;;;25.93;25.35;101394.50;2292398;76;52688;-75
2023/06/12 08:31:18;;;;;;;;;;;;;;;25.89;24.47;101400.86;2293363;76;50643;-77
2023/06/12 08:34:24;;;;;;;;;;;;;;;25.89;24.24;101391.89;2321981;76;50506;-76
2023/06/12 08:37:23;;;;;;;;;;;;;;;25.89;24.56;101389.19;2328940;75;22301;-76
2023/06/12 08:40:24;;;;;;;;;;;;;;;25.85;24.68;101400.46;2244497;78;52477;-76
2023/06/12 08:43:27;;;;;;;;;;;;;;;25.84;25.04;101383.90;2259501;78;51559;-77
2023/06/12 08:46:29;;;;;;;;;;;;;;;25.88;24.90;101387.00;2259417;77;50569;-75
2023/06/12 08:49:31;;;;;;;;;;;;;;;25.96;24.68;101393.53;2259519;77;51456;-76
2023/06/12 08:52:32;;;;;;;;;;;;;;;25.86;24.44;101389.09;2216746;78;52311;-75
2023/06/12 08:55:39;;;;;;;;;;;;;;;25.81;24.49;101382.91;2259539;77;50718;-75
2023/06/12 08:58:37;;;;;;;;;;;;;;;25.83;24.86;101393.03;2259203;78;22501;-74
2023/06/12 09:01:39;;;;;;;;;;;;;;;25.91;24.90;101391.98;2259547;78;50682;-75
2023/06/12 09:04:54;;;;;;;;;;;;;;;25.87;25.12;101399.41;2241078;78;52417;-75
2023/06/12 09:08:00;;;;;;;;;;;;;;;25.85;25.50;101389.62;2301967;75;51596;-76
2023/06/12 09:11:01;;;;;;;;;;;;;;;25.90;25.45;101388.16;2316630;76;22222;-76
2023/06/12 09:14:03;;;;;;;;;;;;;;;26.04;25.21;101375.66;2322004;76;51445;-75
2023/06/12 09:17:04;;;;;;;;;;;;;;;25.96;25.08;101385.93;2292667;76;52143;-75
2023/06/12 09:20:06;;;;;;;;;;;;;;;26.03;25.19;101385.39;2321858;76;50782;-75
2023/06/12 09:23:08;;;;;;;;;;;;;;;25.95;25.53;101378.33;2292920;76;50472;-76
2023/06/12 09:26:16;;;;;;;;;;;;;;;25.67;25.99;101389.97;2321600;76;51518;-75
2023/06/12 09:29:18;;;;;;;;;;;;;;;25.69;26.11;101383.78;2292619;76;52413;-76
2023/06/12 09:32:19;;;;;;;;;;;;;;;25.48;26.15;101387.06;2293247;76;50609;-77
2023/06/12 09:35:21;;;;;;;;;;;;;;;25.61;26.08;101384.35;2293091;76;51529;-77
2023/06/12 09:38:32;;;;;;;;;;;;;;;25.60;26.13;101379.13;2287475;76;49909;-76
2023/06/12 09:41:34;;;;;;;;;;;;;;;25.61;25.65;101381.64;2292521;76;49658;-77
2023/06/12 09:44:36;;;;;;;;;;;;;;;25.60;25.74;101377.77;2322056;76;51486;-76
2023/06/12 09:47:39;;;;;;;;;;;;;;;25.56;25.86;101380.59;2267536;76;52576;-77
2023/06/12 09:50:41;;;;;;;;;;;;;;;25.55;26.01;101382.47;2323867;75;51617;-76
2023/06/12 09:53:44;;;;;;;;;;;;;;;25.52;26.26;101380.72;2298897;75;51254;-76
2023/06/12 09:56:51;;;;;;;;;;;;;;;25.54;26.39;101371.33;2356410;75;51598;-75
2023/06/12 09:59:53;;;;;;;;;;;;;;;25.37;26.88;101377.70;2357097;75;22292;-76
2023/06/12 10:03:00;;;;;;;;;;;;;;;25.55;26.92;101380.28;2353238;74;51513;-76
2023/06/12 10:06:02;;;;;;;;;;;;;;;25.53;27.14;101373.71;2350011;75;22461;-77
2023/06/12 10:09:03;;;;;;;;;;;;;;;25.53;27.58;101370.17;2314024;76;51521;-75
2023/06/12 10:12:06;;;;;;;;;;;;;;;25.54;27.82;101369.15;2322302;76;51419;-76
2023/06/12 10:15:08;;;;;;;;;;;;;;;25.38;28.46;101368.55;2322308;76;51504;-76
2023/06/12 10:18:10;;;;;;;;;;;;;;;25.40;29.16;101376.45;2302727;75;49472;-76
2023/06/12 10:21:11;;;;;;;;;;;;;;;25.32;29.44;101382.09;2339316;75;50740;-76
2023/06/12 10:24:13;;;;;;;;;;;;;;;25.34;29.50;101367.30;2337292;75;51536;-76
2023/06/12 10:27:15;;;;;;;;;;;;;;;25.38;29.60;101359.57;2349831;74;51418;-76
2023/06/12 10:30:17;;;;;;;;;;;;;;;25.41;29.72;101364.59;2332502;75;51157;-76
2023/06/12 10:33:19;;;;;;;;;;;;;;;25.28;29.73;101356.45;2350095;74;51473;-75
2023/06/12 10:36:21;;;;;;;;;;;;;;;25.20;29.69;101351.59;2350024;74;50312;-76
2023/06/12 10:39:27;;;;;;;;;;;;;;;25.06;29.96;101354.48;2332654;75;50288;-76
2023/06/12 10:42:42;;;;;;;;;;;;;;;25.03;30.07;101350.84;2333591;75;22358;-75
2023/06/12 10:45:43;;;;;;;;;;;;;;;25.19;29.86;101349.09;2332634;75;50375;-75
2023/06/12 10:48:49;;;;;;;;;;;;;;;25.30;29.88;101347.08;2329166;75;50354;-76
2023/06/12 10:51:48;;;;;;;;;;;;;;;25.36;29.90;101342.19;2314664;76;22434;-76
2023/06/12 10:54:52;;;;;;;;;;;;;;;25.37;29.32;101345.20;2278763;77;52339;-75
2023/06/12 10:57:54;;;;;;;;;;;;;;;25.43;29.43;101334.03;2294960;77;51495;-76
2023/06/12 11:00:56;;;;;;;;;;;;;;;25.58;29.17;101341.91;2297758;76;50793;-76
2023/06/12 11:03:57;;;;;;;;;;;;;;;25.51;29.38;101334.32;2297535;76;50342;-75
2023/06/12 11:06:59;;;;;;;;;;;;;;;25.46;28.70;101323.28;2253353;77;51174;-76
2023/06/12 11:10:10;;;;;;;;;;;;;;;25.51;28.66;101318.06;2297544;77;50016;-76
2023/06/12 11:13:11;;;;;;;;;;;;;;;25.52;28.57;101316.51;2330225;75;51469;-75
2023/06/12 11:16:15;;;;;;;;;;;;;;;25.49;28.25;101316.11;2332498;75;51563;-75
2023/06/12 11:19:16;;;;;;;;;;;;;;;25.58;27.91;101312.11;2324129;75;51839;-76
2023/06/12 11:22:18;;;;;;;;;;;;;;;25.48;27.34;101300.88;2310850;76;51403;-76
2023/06/12 11:25:20;;;;;;;;;;;;;;;25.42;27.27;101306.64;2307689;75;51516;-76
2023/06/12 11:28:23;;;;;;;;;;;;;;;25.42;27.70;101293.09;2364289;75;51526;-77
2023/06/12 11:31:24;;;;;;;;;;;;;;;25.38;28.34;101314.37;2308483;75;51362;-75
2023/06/12 11:34:28;;;;;;;;;;;;;;;25.37;28.76;101308.63;2364411;75;50602;-75
2023/06/12 11:37:29;;;;;;;;;;;;;;;25.38;28.74;101300.82;2363463;75;50688;-75
2023/06/12 11:40:31;;;;;;;;;;;;;;;25.40;28.82;101301.42;2334643;75;51301;-76
2023/06/12 11:43:32;;;;;;;;;;;;;;;25.22;28.36;101302.62;2308356;75;51765;-76
2023/06/12 11:46:34;;;;;;;;;;;;;;;25.23;28.58;101289.89;2364554;75;50624;-75
2023/06/12 11:49:36;;;;;;;;;;;;;;;25.02;28.87;101290.95;2320692;76;50254;-75
2023/06/12 11:52:38;;;;;;;;;;;;;;;25.11;28.79;101277.52;2323012;76;51505;-76
2023/06/12 11:55:40;;;;;;;;;;;;;;;25.25;28.67;101284.58;2293409;76;52549;-76
2023/06/12 11:58:44;;;;;;;;;;;;;;;25.27;28.84;101285.73;2292970;76;51364;-75
2023/06/12 12:01:48;;;;;;;;;;;;;;;25.35;28.83;101282.79;2321981;76;51452;-77
2023/06/12 12:04:50;;;;;;;;;;;;;;;25.41;28.53;101270.59;2293819;76;22424;-77
2023/06/12 12:07:57;;;;;;;;;;;;;;;25.45;28.36;101278.28;2292783;76;52439;-77
2023/06/12 12:10:57;;;;;;;;;;;;;;;25.39;27.92;101283.52;2337918;75;22399;-76
2023/06/12 12:13:59;;;;;;;;;;;;;;;25.42;27.76;101271.41;2350075;74;51513;-77
2023/06/12 12:17:09;;;;;;;;;;;;;;;25.42;27.83;101267.35;2349899;75;50358;-75
2023/06/12 12:20:15;;;;;;;;;;;;;;;25.41;27.76;101267.87;2312636;76;24641;-76
2023/06/12 12:23:16;;;;;;;;;;;;;;;25.38;27.82;101265.60;2322013;76;50008;-75
2023/06/12 12:26:18;;;;;;;;;;;;;;;25.30;27.88;101261.75;2321789;76;50299;-74
2023/06/12 12:29:20;;;;;;;;;;;;;;;25.35;28.04;101253.81;2322037;76;50350;-76
2023/06/12 12:32:22;;;;;;;;;;;;;;;25.41;27.89;101260.28;2292789;76;52625;-76
2023/06/12 12:35:23;;;;;;;;;;;;;;;25.40;27.60;101248.59;2293291;76;51449;-79
2023/06/12 12:38:25;;;;;;;;;;;;;;;25.26;27.68;101256.47;2324339;75;50801;-79
2023/06/12 12:41:27;;;;;;;;;;;;;;;25.27;27.62;101252.70;2304310;76;50275;-78
2023/06/12 12:44:29;;;;;;;;;;;;;;;25.31;27.40;101245.00;2279561;76;51680;-78
2023/06/12 12:47:30;;;;;;;;;;;;;;;25.29;27.60;101233.02;2279394;77;50350;-78
2023/06/12 12:50:32;;;;;;;;;;;;;;;25.33;27.50;101234.76;2298900;76;51404;-78
2023/06/12 12:53:33;;;;;;;;;;;;;;;25.41;27.23;101235.38;2342336;75;50644;-78
2023/06/12 12:56:35;;;;;;;;;;;;;;;25.46;27.24;101227.95;2267675;77;50993;-79
2023/06/12 12:59:37;;;;;;;;;;;;;;;25.38;27.05;101243.93;2355839;75;50357;-78
2023/06/12 13:02:39;;;;;;;;;;;;;;;25.36;26.77;101239.24;2335936;75;49996;-78
2023/06/12 13:05:41;;;;;;;;;;;;;;;25.34;26.50;101229.14;2365831;75;50671;-78
2023/06/12 13:08:42;;;;;;;;;;;;;;;25.33;26.69;101228.84;2307499;75;50153;-78
2023/06/12 13:11:44;;;;;;;;;;;;;;;25.40;26.52;101220.67;2300285;75;51528;-78
2023/06/12 13:14:46;;;;;;;;;;;;;;;25.40;26.73;101217.96;2323425;75;51687;-78
2023/06/12 13:17:48;;;;;;;;;;;;;;;25.44;26.61;101210.25;2294334;76;50803;-77
2023/06/12 13:20:50;;;;;;;;;;;;;;;25.48;26.57;101212.82;2282845;76;52556;-78
2023/06/12 13:23:52;;;;;;;;;;;;;;;25.44;26.94;101204.84;2256393;78;50174;-78
2023/06/12 13:26:53;;;;;;;;;;;;;;;25.47;26.63;101211.17;2256179;78;50636;-78
2023/06/12 13:29:55;;;;;;;;;;;;;;;25.49;26.44;101198.25;2256203;78;49967;-78
2023/06/12 13:32:57;;;;;;;;;;;;;;;25.49;26.64;101199.60;2256214;78;51659;-79
2023/06/12 13:35:58;;;;;;;;;;;;;;;25.43;25.68;101208.04;2284077;78;51694;-79
2023/06/12 13:39:04;;;;;;;;;;;;;;;25.36;26.22;101199.14;2283965;76;50330;-78
2023/06/12 13:42:03;;;;;;;;;;;;;;;25.44;26.34;101206.19;2283548;78;22462;-79
2023/06/12 13:45:05;;;;;;;;;;;;;;;25.49;26.03;101201.78;2232077;78;52462;-78
2023/06/12 13:48:07;;;;;;;;;;;;;;;25.51;25.77;101205.61;2256662;78;50681;-78
2023/06/12 13:51:08;;;;;;;;;;;;;;;25.51;25.53;101201.55;2291692;76;50098;-78
2023/06/12 13:54:10;;;;;;;;;;;;;;;25.51;25.26;101197.48;2321083;75;50263;-79
2023/06/12 13:57:12;;;;;;;;;;;;;;;25.37;25.98;101189.42;2308552;75;50989;-79
2023/06/12 14:00:14;;;;;;;;;;;;;;;25.47;25.68;101189.50;2309671;75;52421;-78
2023/06/12 14:03:15;;;;;;;;;;;;;;;25.44;24.94;101194.82;2366518;74;50608;-78
2023/06/12 14:06:17;;;;;;;;;;;;;;;25.48;24.93;101184.38;2366241;75;52473;-78
2023/06/12 14:09:19;;;;;;;;;;;;;;;25.46;25.86;101190.52;2335412;75;52028;-78
2023/06/12 14:12:20;;;;;;;;;;;;;;;25.61;25.46;101187.00;2335248;74;50199;-78
2023/06/12 14:15:23;;;;;;;;;;;;;;;25.57;25.97;101185.80;2365788;75;50224;-78
2023/06/12 14:18:24;;;;;;;;;;;;;;;25.62;26.05;101181.91;2364856;74;51630;-78
2023/06/12 14:21:27;;;;;;;;;;;;;;;25.63;25.52;101182.20;2324730;76;51543;-78
2023/06/12 14:24:28;;;;;;;;;;;;;;;25.60;25.88;101185.36;2323090;76;50768;-78
2023/06/12 14:27:30;;;;;;;;;;;;;;;25.64;25.82;101187.95;2323211;76;50621;-78
2023/06/12 14:30:31;;;;;;;;;;;;;;;25.57;25.97;101184.44;2323231;76;51382;-78
2023/06/12 14:33:33;;;;;;;;;;;;;;;25.58;26.04;101182.02;2268954;76;51688;-78
2023/06/12 14:36:35;;;;;;;;;;;;;;;25.60;25.93;101181.30;2294041;76;50602;-79
2023/06/12 14:39:36;;;;;;;;;;;;;;;25.60;25.99;101177.23;2361115;75;50610;-78
2023/06/12 14:42:38;;;;;;;;;;;;;;;25.60;25.91;101178.05;2335619;75;50382;-78
2023/06/12 14:45:39;;;;;;;;;;;;;;;25.56;25.92;101180.91;2365374;75;50239;-78
2023/06/12 14:48:41;;;;;;;;;;;;;;;25.62;25.75;101171.07;2330998;75;50585;-78
2023/06/12 14:51:42;;;;;;;;;;;;;;;25.54;25.75;101168.09;2284769;77;51468;-78
2023/06/12 14:54:44;;;;;;;;;;;;;;;25.60;26.01;101170.45;2303566;75;51467;-78
2023/06/12 14:57:46;;;;;;;;;;;;;;;25.62;26.06;101173.78;2336511;74;51445;-78
2023/06/12 15:00:48;;;;;;;;;;;;;;;25.61;25.66;101163.97;2309839;75;52113;-77
2023/06/12 15:03:50;;;;;;;;;;;;;;;25.50;25.83;101172.80;2335999;74;51538;-78
2023/06/12 15:06:52;;;;;;;;;;;;;;;25.55;25.75;101173.80;2365563;75;51617;-78
2023/06/12 15:09:53;;;;;;;;;;;;;;;25.44;25.98;101163.66;2365295;75;50319;-79
2023/06/12 15:12:55;;;;;;;;;;;;;;;25.49;26.42;101165.73;2335154;74;50976;-79
2023/06/12 15:15:57;;;;;;;;;;;;;;;25.61;26.03;101155.84;2331814;75;51581;-79
2023/06/12 15:19:03;;;;;;;;;;;;;;;25.61;26.14;101155.84;2345450;75;51529;-78
2023/06/12 15:22:02;;;;;;;;;;;;;;;25.66;26.37;101147.06;2323606;76;23112;-79
2023/06/12 15:25:04;;;;;;;;;;;;;;;25.83;25.95;101149.56;2270641;76;50999;-79
2023/06/12 15:28:05;;;;;;;;;;;;;;;25.79;25.76;101152.39;2296163;76;50070;-77
2023/06/12 15:31:07;;;;;;;;;;;;;;;25.73;25.42;101154.63;2323681;76;50240;-77
2023/06/12 15:34:08;;;;;;;;;;;;;;;25.59;25.79;101145.23;2323941;76;50395;-79